createdAt,value
2018-12-19T00:02:22.837Z,91.55
2018-12-19T00:04:51.280Z,91.72
2018-12-19T00:07:19.759Z,91.48
2018-12-19T00:09:48.215Z,91.37
2018-12-19T00:12:16.668Z,91.05
2018-12-19T00:14:45.140Z,90.78
2018-12-19T00:17:13.645Z,90.73
2018-12-19T00:19:42.082Z,91.21
2018-12-19T00:22:10.535Z,91.30
2018-12-19T00:24:38.967Z,91.08
2018-12-19T00:27:07.397Z,91.54
2018-12-19T00:29:35.851Z,91.47
2018-12-19T00:32:04.291Z,91.59
2018-12-19T00:34:32.740Z,91.52
2018-12-19T00:37:01.193Z,91.45
2018-12-19T00:39:29.660Z,91.35
2018-12-19T00:41:58.108Z,91.51
2018-12-19T00:44:26.571Z,91.63
2018-12-19T00:46:54.979Z,91.49
2018-12-19T00:49:23.437Z,91.56
2018-12-19T00:51:51.858Z,91.55
2018-12-19T00:54:20.312Z,91.50
2018-12-19T00:56:48.747Z,91.26
2018-12-19T00:59:17.189Z,91.18
2018-12-19T01:01:45.611Z,91.13
2018-12-19T01:04:14.079Z,91.29
2018-12-19T01:06:42.524Z,91.05
2018-12-19T01:09:15.855Z,91.36
2018-12-19T01:13:10.582Z,91.16
2018-12-19T01:15:39.047Z,91.18
2018-12-19T01:18:07.508Z,91.11
2018-12-19T01:20:35.944Z,91.07
2018-12-19T01:23:04.412Z,91.15
2018-12-19T01:25:32.855Z,90.98
2018-12-19T01:28:01.322Z,90.86
2018-12-19T01:30:29.757Z,91.08
2018-12-19T01:32:58.205Z,90.89
2018-12-19T01:35:26.632Z,90.75
2018-12-19T01:37:55.083Z,90.67
2018-12-19T01:40:23.512Z,90.63
2018-12-19T01:42:51.967Z,90.55
2018-12-19T01:45:20.392Z,90.79
2018-12-19T01:47:49.186Z,90.84
2018-12-19T01:50:17.638Z,90.72
2018-12-19T01:52:46.090Z,90.63
2018-12-19T01:55:14.633Z,90.45
2018-12-19T01:57:43.188Z,90.45
2018-12-19T02:00:11.591Z,90.41
2018-12-19T02:02:40.027Z,90.43
2018-12-19T02:05:08.500Z,90.54
2018-12-19T02:07:36.934Z,90.61
2018-12-19T02:10:05.947Z,90.51
2018-12-19T02:12:34.400Z,90.60
2018-12-19T02:15:02.902Z,90.59
2018-12-19T02:17:31.332Z,90.44
2018-12-19T02:19:59.787Z,90.49
2018-12-19T02:22:28.216Z,90.69
2018-12-19T02:24:56.654Z,90.56
2018-12-19T02:27:25.075Z,90.53
2018-12-19T02:29:53.655Z,90.54
2018-12-19T02:32:22.079Z,90.52
2018-12-19T02:34:50.539Z,90.20
2018-12-19T02:37:19.001Z,89.96
2018-12-19T02:39:47.478Z,90.01
2018-12-19T02:42:15.933Z,90.02
2018-12-19T02:44:44.413Z,90.07
2018-12-19T02:47:12.847Z,89.93
2018-12-19T02:49:41.312Z,90.02
2018-12-19T02:52:09.755Z,90.12
2018-12-19T02:54:38.208Z,90.14
2018-12-19T02:57:06.627Z,90.34
2018-12-19T02:59:35.094Z,90.17
2018-12-19T03:02:03.611Z,90.18
2018-12-19T03:04:32.069Z,90.37
2018-12-19T03:07:00.522Z,90.18
2018-12-19T03:09:28.968Z,90.51
2018-12-19T03:11:57.411Z,90.51
2018-12-19T03:14:25.900Z,90.36
2018-12-19T03:16:54.338Z,90.26
2018-12-19T03:19:22.827Z,90.23
2018-12-19T03:21:51.252Z,90.07
2018-12-19T03:24:19.707Z,90.18
2018-12-19T03:26:48.186Z,90.16
2018-12-19T03:29:16.656Z,90.17
2018-12-19T03:31:45.089Z,90.20
2018-12-19T03:34:13.543Z,90.14
2018-12-19T03:36:41.992Z,90.10
2018-12-19T03:39:10.569Z,90.15
2018-12-19T03:41:38.994Z,90.23
2018-12-19T03:44:07.455Z,89.89
2018-12-19T03:46:35.901Z,90.11
2018-12-19T03:49:04.492Z,90.17
2018-12-19T03:51:32.903Z,90.10
2018-12-19T03:54:01.382Z,90.12
2018-12-19T03:56:29.799Z,90.12
2018-12-19T03:58:58.271Z,90.14
2018-12-19T04:01:26.756Z,90.22
2018-12-19T04:03:55.237Z,90.09
2018-12-19T04:06:23.644Z,90.15
2018-12-19T04:08:52.124Z,90.01
2018-12-19T04:11:20.561Z,90.04
2018-12-19T04:13:49.037Z,90.12
2018-12-19T04:16:17.465Z,89.82
2018-12-19T04:18:45.912Z,90.12
2018-12-19T04:21:14.339Z,89.60
2018-12-19T04:23:42.768Z,89.83
2018-12-19T04:26:11.225Z,89.95
2018-12-19T04:28:39.663Z,89.53
2018-12-19T04:31:08.117Z,89.59
2018-12-19T04:33:36.537Z,89.20
2018-12-19T04:36:05.543Z,89.30
2018-12-19T04:38:34.095Z,89.51
2018-12-19T04:41:02.561Z,89.31
2018-12-19T04:43:30.983Z,89.27
2018-12-19T04:45:59.447Z,89.07
2018-12-19T04:48:27.888Z,89.19
2018-12-19T04:50:56.337Z,89.10
2018-12-19T04:53:24.774Z,89.19
2018-12-19T04:55:53.254Z,89.33
2018-12-19T04:58:21.748Z,89.24
2018-12-19T05:00:50.210Z,89.21
2018-12-19T05:03:18.638Z,89.10
2018-12-19T05:05:47.100Z,89.38
2018-12-19T05:08:15.639Z,89.08
2018-12-19T05:10:44.099Z,89.35
2018-12-19T05:13:12.639Z,89.04
2018-12-19T05:15:41.120Z,89.24
2018-12-19T05:18:09.547Z,89.25
2018-12-19T05:20:38.000Z,89.17
2018-12-19T05:23:06.423Z,89.33
2018-12-19T05:25:34.867Z,89.29
2018-12-19T05:28:03.294Z,89.23
2018-12-19T05:30:31.744Z,89.57
2018-12-19T05:33:00.195Z,89.64
2018-12-19T05:35:28.663Z,89.48
2018-12-19T05:37:57.143Z,89.35
2018-12-19T05:40:25.594Z,89.48
2018-12-19T05:42:54.028Z,89.33
2018-12-19T05:45:22.479Z,89.37
2018-12-19T05:47:51.032Z,89.36
2018-12-19T05:50:22.015Z,89.17
2018-12-19T05:52:50.435Z,89.18
2018-12-19T05:55:18.878Z,89.26
2018-12-19T05:57:47.299Z,89.38
2018-12-19T06:00:15.771Z,89.31
2018-12-19T06:02:44.224Z,89.23
2018-12-19T06:05:12.673Z,89.21
2018-12-19T06:07:41.095Z,89.15
2018-12-19T06:10:09.699Z,89.43
2018-12-19T06:12:38.131Z,89.24
2018-12-19T06:15:06.866Z,89.25
2018-12-19T06:17:35.311Z,89.10
2018-12-19T06:20:04.368Z,89.45
2018-12-19T06:22:32.817Z,89.24
2018-12-19T06:25:01.299Z,89.20
2018-12-19T06:27:29.756Z,89.35
2018-12-19T06:31:22.740Z,89.37
2018-12-19T06:33:51.416Z,89.71
2018-12-19T06:36:19.862Z,89.66
2018-12-19T06:38:48.372Z,89.89
2018-12-19T06:41:17.237Z,89.58
2018-12-19T06:43:46.559Z,89.79
2018-12-19T06:46:15.056Z,89.96
2018-12-19T06:48:43.489Z,89.68
2018-12-19T06:51:11.971Z,89.65
2018-12-19T06:53:40.630Z,89.85
2018-12-19T06:56:09.111Z,89.70
2018-12-19T06:58:37.547Z,89.51
2018-12-19T07:08:00.939Z,89.59
2018-12-19T07:10:29.535Z,89.75
2018-12-19T07:12:58.027Z,89.39
2018-12-19T07:15:26.563Z,89.06
2018-12-19T07:17:55.127Z,89.80
2018-12-19T07:20:23.764Z,89.61
2018-12-19T07:22:52.211Z,89.30
2018-12-19T07:25:20.747Z,89.27
2018-12-19T07:27:49.192Z,88.97
2018-12-19T07:30:17.839Z,89.19
2018-12-19T07:32:46.287Z,88.59
2018-12-19T07:35:14.837Z,88.50
2018-12-19T07:37:43.431Z,88.68
2018-12-19T07:40:11.884Z,88.53
2018-12-19T07:42:40.333Z,88.75
2018-12-19T07:45:08.809Z,88.61
2018-12-19T07:47:37.263Z,88.48
2018-12-19T07:52:58.769Z,88.51
2018-12-19T07:55:29.342Z,88.30
2018-12-19T07:57:57.833Z,88.44
2018-12-19T08:00:27.562Z,88.79
2018-12-19T08:02:56.271Z,88.06
2018-12-19T08:05:26.324Z,88.33
2018-12-19T08:07:55.086Z,88.48
2018-12-19T08:10:23.608Z,88.23
2018-12-19T08:12:52.028Z,87.67
2018-12-19T08:15:20.543Z,87.76
2018-12-19T08:17:48.975Z,88.37
2018-12-19T08:20:17.440Z,88.66
2018-12-19T08:22:45.876Z,88.48
2018-12-19T08:25:14.339Z,89.05
2018-12-19T08:27:42.871Z,89.53
2018-12-19T08:30:11.467Z,89.24
2018-12-19T08:32:39.916Z,89.36
2018-12-19T08:35:08.459Z,89.30
2018-12-19T08:37:36.906Z,89.79
2018-12-19T08:40:06.244Z,89.58
2018-12-19T08:42:34.688Z,89.50
2018-12-19T08:45:03.127Z,89.81
2018-12-19T08:47:31.943Z,89.68
2018-12-19T08:50:00.360Z,89.27
2018-12-19T08:52:28.803Z,89.69
2018-12-19T08:54:57.220Z,89.50
2018-12-19T08:57:25.667Z,89.40
2018-12-19T08:59:54.072Z,89.08
2018-12-19T09:02:22.619Z,89.11
2018-12-19T09:04:51.045Z,88.95
2018-12-19T09:10:14.000Z,88.96
2018-12-19T09:12:42.495Z,89.08
2018-12-19T09:15:10.959Z,88.66
2018-12-19T09:17:39.412Z,88.32
2018-12-19T09:20:08.519Z,88.74
2018-12-19T09:22:37.134Z,88.00
2018-12-19T09:25:05.824Z,87.86
2018-12-19T09:27:34.280Z,88.20
2018-12-19T09:30:02.747Z,88.58
2018-12-19T09:32:31.233Z,88.21
2018-12-19T09:34:59.671Z,87.58
2018-12-19T09:37:28.180Z,86.70
2018-12-19T09:39:56.604Z,86.73
2018-12-19T09:42:25.068Z,85.92
2018-12-19T09:44:53.514Z,86.34
2018-12-19T09:47:21.980Z,86.04
2018-12-19T09:49:50.420Z,85.30
2018-12-19T09:52:18.905Z,86.28
2018-12-19T09:54:47.384Z,86.75
2018-12-19T09:57:15.852Z,85.76
2018-12-19T09:59:44.268Z,85.74
2018-12-19T10:02:13.257Z,86.12
2018-12-19T10:04:41.679Z,85.83
2018-12-19T10:07:10.142Z,85.40
2018-12-19T10:09:38.741Z,83.61
2018-12-19T10:12:07.328Z,83.90
2018-12-19T10:14:35.776Z,82.85
2018-12-19T10:17:04.426Z,81.66
2018-12-19T10:19:32.931Z,82.25
2018-12-19T10:22:01.437Z,83.00
2018-12-19T10:24:35.067Z,83.59
2018-12-19T10:27:03.719Z,83.26
2018-12-19T10:29:32.207Z,83.20
2018-12-19T10:32:00.813Z,83.42
2018-12-19T10:34:29.253Z,83.04
2018-12-19T10:36:59.160Z,84.42
2018-12-19T10:39:27.904Z,84.50
2018-12-19T10:41:56.352Z,85.02
2018-12-19T10:44:24.790Z,85.41
2018-12-19T10:46:53.251Z,85.84
2018-12-19T10:49:21.676Z,85.91
2018-12-19T10:51:50.129Z,84.74
2018-12-19T10:54:18.569Z,86.14
2018-12-19T10:56:47.003Z,86.34
2018-12-19T10:59:15.480Z,86.41
2018-12-19T11:01:43.916Z,85.77
2018-12-19T11:04:12.377Z,86.19
2018-12-19T11:06:40.801Z,86.82
2018-12-19T11:09:09.396Z,87.61
2018-12-19T11:11:37.841Z,87.22
2018-12-19T11:14:06.345Z,86.97
2018-12-19T11:16:34.779Z,86.61
2018-12-19T11:19:03.259Z,87.12
2018-12-19T11:21:31.708Z,87.27
2018-12-19T11:24:00.299Z,87.23
2018-12-19T11:26:28.867Z,86.20
2018-12-19T11:28:57.327Z,86.54
2018-12-19T11:31:26.253Z,87.23
2018-12-19T11:33:54.724Z,86.62
2018-12-19T11:36:23.180Z,87.04
2018-12-19T11:38:51.648Z,86.55
2018-12-19T11:41:20.093Z,86.49
2018-12-19T11:43:48.549Z,86.66
2018-12-19T11:46:17.000Z,86.55
2018-12-19T11:48:45.468Z,87.39
2018-12-19T11:51:14.039Z,86.68
2018-12-19T11:53:42.539Z,86.68
2018-12-19T11:56:10.980Z,86.42
2018-12-19T11:58:39.454Z,85.76
2018-12-19T12:01:07.911Z,85.96
2018-12-19T12:03:36.423Z,86.33
2018-12-19T12:06:04.914Z,85.74
2018-12-19T12:08:33.384Z,85.72
2018-12-19T12:11:01.829Z,86.13
2018-12-19T12:13:30.290Z,85.77
2018-12-19T12:15:58.766Z,85.75
2018-12-19T12:18:27.229Z,85.59
2018-12-19T12:20:55.675Z,84.84
2018-12-19T12:23:24.147Z,83.53
2018-12-19T12:25:52.732Z,83.12
2018-12-19T12:28:21.192Z,83.57
2018-12-19T12:30:49.637Z,83.49
2018-12-19T12:33:18.100Z,82.67
2018-12-19T12:35:46.659Z,82.83
2018-12-19T12:38:15.119Z,83.68
2018-12-19T12:40:43.559Z,84.09
2018-12-19T12:43:12.041Z,84.75
2018-12-19T12:45:40.491Z,84.24
2018-12-19T12:48:08.971Z,84.70
2018-12-19T12:50:37.412Z,84.34
2018-12-19T12:53:05.889Z,84.47
2018-12-19T12:55:34.340Z,84.64
2018-12-19T12:58:02.788Z,84.89
2018-12-19T13:00:31.251Z,85.55
2018-12-19T13:02:59.725Z,85.38
2018-12-19T13:05:28.168Z,85.07
2018-12-19T13:07:56.639Z,85.56
2018-12-19T13:10:26.689Z,85.98
2018-12-19T13:12:55.272Z,85.00
2018-12-19T13:15:29.047Z,85.00
2018-12-19T13:17:57.932Z,84.60
2018-12-19T13:20:26.460Z,84.31
2018-12-19T13:22:54.927Z,83.87
2018-12-19T13:25:23.386Z,84.16
2018-12-19T13:27:52.138Z,83.68
2018-12-19T13:30:20.576Z,83.83
2018-12-19T13:32:49.011Z,84.15
2018-12-19T13:35:17.492Z,83.94
2018-12-19T13:37:45.932Z,82.99
2018-12-19T13:40:14.386Z,83.28
2018-12-19T13:42:42.822Z,83.53
2018-12-19T13:45:11.300Z,83.58
2018-12-19T13:47:39.720Z,83.73
2018-12-19T13:50:08.777Z,84.17
2018-12-19T13:52:37.199Z,83.72
2018-12-19T13:55:06.163Z,83.92
2018-12-19T13:57:34.699Z,83.98
2018-12-19T14:00:03.669Z,84.08
2018-12-19T14:02:32.087Z,83.63
2018-12-19T14:05:00.540Z,83.97
2018-12-19T14:07:28.963Z,84.02
2018-12-19T14:09:57.444Z,83.74
2018-12-19T14:12:25.890Z,83.54
2018-12-19T14:14:54.375Z,82.78
2018-12-19T14:17:22.819Z,82.75
2018-12-19T14:19:51.272Z,82.46
2018-12-19T14:22:19.713Z,82.47
2018-12-19T14:24:48.188Z,82.70
2018-12-19T14:27:16.636Z,82.11
2018-12-19T14:29:45.095Z,82.37
2018-12-19T14:32:13.551Z,82.62
2018-12-19T14:34:42.025Z,82.82
2018-12-19T14:37:10.455Z,82.93
2018-12-19T14:39:38.914Z,82.77
2018-12-19T14:44:42.195Z,82.76
2018-12-19T14:47:11.467Z,82.65
2018-12-19T14:49:39.939Z,82.61
2018-12-19T14:52:13.844Z,82.49
2018-12-19T14:54:42.311Z,83.01
2018-12-19T14:57:10.743Z,82.90
2018-12-19T14:59:39.200Z,83.22
2018-12-19T15:02:07.653Z,83.91
2018-12-19T15:04:36.134Z,84.05
2018-12-19T15:07:04.709Z,84.30
2018-12-19T15:09:33.161Z,84.33
2018-12-19T15:12:01.744Z,84.14
2018-12-19T15:14:30.348Z,84.25
2018-12-19T15:16:58.940Z,84.44
2018-12-19T15:19:27.410Z,85.04
2018-12-19T15:21:55.830Z,84.68
2018-12-19T15:27:17.543Z,84.86
2018-12-19T15:29:45.983Z,85.39
2018-12-19T15:32:14.399Z,85.36
2018-12-19T15:37:49.071Z,85.59
2018-12-19T15:46:02.880Z,85.33
2018-12-19T15:51:24.227Z,85.80
2018-12-19T15:53:52.752Z,86.03
2018-12-19T15:56:21.184Z,86.12
2018-12-19T15:58:49.644Z,85.97
2018-12-19T16:01:18.064Z,86.57
2018-12-19T16:03:46.487Z,87.19
2018-12-19T16:09:08.099Z,86.45
2018-12-19T16:11:36.542Z,85.86
2018-12-19T16:14:05.191Z,86.02
2018-12-19T16:16:33.615Z,86.34
2018-12-19T16:19:02.083Z,86.47
2018-12-19T16:21:30.532Z,86.00
2018-12-19T16:23:59.033Z,85.92
2018-12-19T16:26:27.524Z,86.66
2018-12-19T16:28:56.027Z,86.83
2018-12-19T16:31:25.213Z,87.11
2018-12-19T16:36:46.270Z,86.77
2018-12-19T16:39:14.759Z,86.62
2018-12-19T16:41:43.209Z,86.46
2018-12-19T16:44:11.673Z,86.66
2018-12-19T16:46:40.076Z,85.92
2018-12-19T16:49:08.569Z,85.74
2018-12-19T16:51:37.310Z,85.53
2018-12-19T16:54:05.828Z,85.70
2018-12-19T16:56:34.432Z,85.37
2018-12-19T16:59:02.864Z,85.19
2018-12-19T17:01:31.368Z,85.27
2018-12-19T17:03:59.946Z,85.83
2018-12-19T17:06:28.408Z,85.47
2018-12-19T17:14:42.417Z,84.83
2018-12-19T17:28:48.979Z,85.38
2018-12-19T17:31:17.447Z,85.78
2018-12-19T17:33:45.890Z,85.26
2018-12-19T17:39:07.131Z,84.82
2018-12-19T17:47:20.579Z,85.25
2018-12-19T17:52:41.747Z,85.01
2018-12-19T17:55:10.235Z,84.73
2018-12-19T18:00:31.764Z,84.91
2018-12-19T18:03:00.186Z,84.38
2018-12-19T18:05:28.655Z,84.38
2018-12-19T18:10:49.079Z,84.75
2018-12-19T18:16:13.210Z,84.26
2018-12-19T18:18:41.639Z,84.69
2018-12-19T18:26:55.746Z,84.12
2018-12-19T18:29:24.313Z,84.80
2018-12-19T18:31:52.775Z,84.22
2018-12-19T18:34:22.885Z,84.25
2018-12-19T18:36:51.365Z,84.21
2018-12-19T18:39:25.919Z,83.90
2018-12-19T18:41:50.338Z,84.31
2018-12-19T18:47:10.734Z,83.63
2018-12-19T18:58:17.032Z,83.68
2018-12-19T19:06:46.599Z,83.35
2018-12-19T19:29:22.843Z,83.97
2018-12-19T19:43:31.292Z,83.82
2018-12-19T20:00:28.200Z,83.15
2018-12-19T20:02:56.623Z,83.50
2018-12-19T20:11:32.183Z,83.01
2018-12-19T20:45:38.699Z,83.15
2018-12-19T20:48:07.159Z,83.01
2018-12-19T20:50:40.483Z,82.73
2018-12-19T21:02:39.762Z,82.29
2018-12-19T21:05:08.295Z,82.06
2018-12-19T21:10:30.132Z,82.70
2018-12-19T21:12:58.595Z,82.13
2018-12-19T21:15:27.058Z,82.47
2018-12-19T21:20:48.571Z,81.99
2018-12-19T21:23:17.039Z,81.86
2018-12-19T21:25:45.461Z,82.16
2018-12-19T21:28:13.906Z,82.06
2018-12-19T21:33:40.934Z,82.34
2018-12-19T21:39:02.181Z,82.87
2018-12-19T21:41:30.756Z,82.95
2018-12-19T21:43:59.318Z,82.42
2018-12-19T21:46:27.796Z,82.94
2018-12-19T21:48:56.334Z,82.76
2018-12-19T21:51:24.798Z,83.15
2018-12-19T21:53:53.235Z,82.06
2018-12-19T21:56:21.701Z,81.93
2018-12-19T21:58:50.136Z,82.32
2018-12-19T22:01:18.774Z,82.80
2018-12-19T22:03:47.192Z,82.25
2018-12-19T22:06:16.035Z,82.37
2018-12-19T22:08:44.591Z,82.81
2018-12-19T22:11:13.227Z,82.56
2018-12-19T22:13:41.769Z,82.56
2018-12-19T22:16:14.431Z,82.56
2018-12-19T22:24:28.572Z,83.72
2018-12-19T22:29:49.768Z,84.23
2018-12-19T22:32:18.590Z,84.58
2018-12-19T22:34:47.043Z,85.10
2018-12-19T22:37:15.638Z,85.40
2018-12-19T22:39:44.140Z,85.67
2018-12-19T22:45:05.181Z,87.72
2018-12-19T22:47:33.675Z,87.94
2018-12-19T22:52:56.714Z,87.75
2018-12-19T22:58:17.782Z,88.77
2018-12-19T23:12:16.907Z,88.47
2018-12-19T23:18:27.410Z,88.58
2018-12-19T23:20:56.358Z,88.32
2018-12-19T23:23:25.024Z,88.70
2018-12-19T23:25:53.570Z,87.81
2018-12-19T23:28:22.134Z,87.47
2018-12-19T23:30:50.694Z,87.23
2018-12-19T23:33:19.208Z,88.00
2018-12-19T23:35:47.748Z,87.84
2018-12-19T23:38:16.218Z,88.00
2018-12-19T23:40:44.720Z,88.41
2018-12-19T23:43:13.587Z,88.28
2018-12-19T23:45:42.192Z,88.10
2018-12-19T23:48:10.813Z,87.10
2018-12-19T23:50:39.401Z,86.46
2018-12-19T23:53:07.984Z,85.77
2018-12-19T23:55:36.436Z,85.44
2018-12-19T23:58:05.037Z,85.74
